« 来襲 富山空港 2019/10/12 sat | トップページ | 撃鉄2 小松飛行場 2019/10/10 thu »

2019/10/13

定点 富山空港 2019/10/13 sun

台風19号は、昨晩の内に当地を通過して、大過なくすんだようでした。しかし、山の向こうの長野では、河川氾濫で甚大な被害が発生している模様。ほんの少しの差で、被災が左右される理不尽さも感じますが、立山信仰は益々深まるばかりです。

RJNT 130200Z 01013G23KT 9000 VCSH FEW010 BKN025 BKN040 18/13 Q1018

20191013_rjnt_00tyo

本日の国内線営業は、ANA320から。昨日避難してきていたフラワーさんは、10時頃に羽田に戻られました。

20191013_rjnt_01b18658

外航は、変わらずやってきます。

20191013_rjnt_02b18658

CAL170 RCTP-RJNT B-18658 B737-8SH

20191013_rjnt_03b18658

団体バスが多かったけど、無事でなによりです。

RJNT 130200Z 01013G23KT 9000 VCSH FEW010 BKN025 BKN040 18/13 Q1018

20191013_rjnt_04b18658

20191013_rjnt_05b18658

CAL171 RJNT-RCTP B-18658 B737-8SH

20191013_rjnt_06ja8600

しばらく待ってみると、IFRで怪しいのがやって来た

20191013_rjnt_07ja8600

JA8600 RJFS-RJNT Gulfstream Aerospace 695 Jetprop 980

20191013_rjnt_08ja8600

短い距離で180

20191013_rjnt_09ja8600

他にはない独特のフォルム

20191013_rjnt_10ja8600

今日は佐賀空港から直接飛来 A-PADジャパンの運航

20191013_rjnt_11ja8600

駐機するのに逆進しました。

RJNT 130200Z 01013G23KT 9000 VCSH FEW010 BKN025 BKN040 18/13 Q1018

20191013_rjnt_12ja01pw

しばらくして2機編隊のヘリコプター

20191013_rjnt_13ja01pw

20191013_rjnt_14ja01pw

JA01PW AS350B2

20191013_rjnt_15ja9727

JA9727 AS350B

20191013_rjnt_16ja9727

どうもこの3機は、一団の模様

20191013_rjnt_17ja9727

そろって給油の後は、物資の取り卸し

20191013_rjnt_18ja01pw

よく観察すると、救難用ボートの用品が・・

20191013_rjnt_19ja123t

20191013_rjnt_20ja123t

20191013_rjnt_21ja123t

JA123T PA-46-350P

20191013_rjnt_22ja123t

エアロコマンダーのお隣へ

20191013_rjnt_23ja02cp

北東から飛来 長野の現場からか

20191013_rjnt_24ja02cp

JA02CP EC135P2 CSP

20191013_rjnt_25ja02cp

賑やかなスポットです

RJNT 130600Z 02011G23KT 340V050 9000 VCSH FEW015 BKN030 BKN040 18/12 Q1019

20191013_rjnt_26ja6502

JA6502 AS350B3 AKF

20191013_rjnt_27ja112a

青組営業便が

20191013_rjnt_28ja112a

20191013_rjnt_29ja112a

ANA1182 RJCC-RJNT JA112A A321-211

20191013_rjnt_30ja112a

今般の台風被害でJR東日本の長野新幹線車両センターが水没した。今後の青組の対応に注目したい。

20191013_rjnt_31ja01pw

どうも資材はここから陸送で、人員のみ乗り込み出発

特定非営利活動法人ピースウィンズ・ジャパンとCivic Force のチームの

【台風19号】緊急支援チーム、被災地へ

令和元年台風19号でピースウィンズ・ジャパン医療・レスキューチームによる緊急支援活動を開始

20191013_rjnt_32ja01pw

JA01PW

20191013_rjnt_33ja9727

JA9727

20191013_rjnt_34ja9727

北東へ向かったので、被災地に向かった模様

RJNT 130700Z 02008KT 350V060 9999 FEW015 BKN030 BKN040 19/12 Q1019

20191013_rjnt_35ja02cp

JA02CP 給油と休憩を終えて、こちらも出発。名古屋へ帰るかと思いきや、北東方面へ。

20191013_rjnt_36ja112a

当然、満席での出発です。

20191013_rjnt_37ja112a

ANA320 RJNT-RJTT JA112A A321-211

全日空では、この後の319/322はB6にサイズアップした上、その後に福岡から回航したB6を1310便として運航した。

 

|

« 来襲 富山空港 2019/10/12 sat | トップページ | 撃鉄2 小松飛行場 2019/10/10 thu »

富山空港」カテゴリの記事

コメント

コメントを書く



(ウェブ上には掲載しません)


コメントは記事投稿者が公開するまで表示されません。



« 来襲 富山空港 2019/10/12 sat | トップページ | 撃鉄2 小松飛行場 2019/10/10 thu »